createdAt,value
2017-10-24T00:01:19.473Z,1.87
2017-10-24T00:03:50.241Z,1.80
2017-10-24T00:06:21.008Z,1.90
2017-10-24T00:08:51.780Z,1.90
2017-10-24T00:11:22.516Z,1.80
2017-10-24T00:13:53.304Z,1.80
2017-10-24T00:16:24.059Z,1.93
2017-10-24T00:18:54.839Z,1.60
2017-10-24T00:21:25.618Z,1.80
2017-10-24T00:23:56.388Z,1.80
2017-10-24T00:26:27.171Z,1.70
2017-10-24T00:28:57.944Z,2.00
2017-10-24T00:31:28.739Z,1.70
2017-10-24T00:33:59.496Z,1.80
2017-10-24T00:36:30.248Z,1.80
2017-10-24T00:39:01.013Z,2.00
2017-10-24T00:41:31.777Z,1.80
2017-10-24T00:44:02.572Z,1.90
2017-10-24T00:46:33.325Z,1.83
2017-10-24T00:49:04.122Z,1.90
2017-10-24T00:51:34.857Z,1.90
2017-10-24T00:54:05.620Z,1.90
2017-10-24T00:56:36.373Z,1.70
2017-10-24T00:59:07.161Z,1.80
2017-10-24T01:01:37.917Z,1.80
2017-10-24T01:04:08.680Z,1.60
2017-10-24T01:06:39.454Z,1.90
2017-10-24T01:09:10.197Z,1.83
2017-10-24T01:11:40.977Z,1.70
2017-10-24T01:14:11.737Z,1.60
2017-10-24T01:16:42.516Z,1.90
2017-10-24T01:19:13.269Z,1.97
2017-10-24T01:21:44.040Z,1.80
2017-10-24T01:24:14.816Z,1.70
2017-10-24T01:26:45.570Z,1.90
2017-10-24T01:29:16.340Z,1.77
2017-10-24T01:31:47.100Z,1.93
2017-10-24T01:34:17.868Z,1.90
2017-10-24T01:36:48.612Z,1.70
2017-10-24T01:39:19.400Z,1.70
2017-10-24T01:41:50.149Z,1.80
2017-10-24T01:44:20.920Z,1.67
2017-10-24T01:46:51.670Z,1.60
2017-10-24T01:49:22.429Z,1.73
2017-10-24T01:51:53.172Z,1.70
2017-10-24T01:54:23.948Z,1.83
2017-10-24T01:56:54.696Z,1.80
2017-10-24T01:59:25.491Z,1.83
2017-10-24T02:01:56.232Z,1.53
2017-10-24T02:04:27.000Z,1.80
2017-10-24T02:06:57.799Z,1.53
2017-10-24T02:09:28.545Z,1.80
2017-10-24T02:11:59.315Z,1.60
2017-10-24T02:14:30.061Z,1.80
2017-10-24T02:17:00.837Z,1.80
2017-10-24T02:19:31.600Z,1.80
2017-10-24T02:22:02.400Z,1.80
2017-10-24T02:24:33.140Z,1.70
2017-10-24T02:27:03.936Z,1.80
2017-10-24T02:29:34.702Z,1.73
2017-10-24T02:32:05.473Z,1.50
2017-10-24T02:34:36.232Z,1.77
2017-10-24T02:37:07.012Z,1.70
2017-10-24T02:39:37.773Z,1.70
2017-10-24T02:42:08.537Z,1.60
2017-10-24T02:44:39.305Z,1.70
2017-10-24T02:47:10.084Z,1.63
2017-10-24T02:49:40.860Z,1.60
2017-10-24T02:52:11.612Z,1.77
2017-10-24T02:54:42.381Z,1.50
2017-10-24T02:57:13.167Z,1.70
2017-10-24T02:59:43.920Z,1.60
2017-10-24T03:02:14.692Z,1.50
2017-10-24T03:04:45.440Z,1.53
2017-10-24T03:07:16.231Z,1.53
2017-10-24T03:09:46.972Z,1.30
2017-10-24T03:12:17.753Z,1.70
2017-10-24T03:14:48.505Z,1.40
2017-10-24T03:17:19.297Z,1.40
2017-10-24T03:19:50.061Z,1.50
2017-10-24T03:22:20.837Z,1.60
2017-10-24T03:24:51.625Z,1.53
2017-10-24T03:27:22.364Z,1.67
2017-10-24T03:29:53.143Z,1.50
2017-10-24T03:32:23.911Z,1.60
2017-10-24T03:34:54.652Z,1.37
2017-10-24T03:37:25.443Z,1.50
2017-10-24T03:39:56.227Z,1.57
2017-10-24T03:42:26.973Z,1.50
2017-10-24T03:44:57.761Z,1.37
2017-10-24T03:47:28.608Z,1.60
2017-10-24T03:49:59.351Z,1.40
2017-10-24T03:52:30.117Z,1.60
2017-10-24T03:55:00.899Z,1.30
2017-10-24T03:57:31.651Z,1.70
2017-10-24T04:00:02.440Z,1.40
2017-10-24T04:02:33.205Z,1.50
2017-10-24T04:05:03.948Z,1.40
2017-10-24T04:07:34.708Z,1.50
2017-10-24T04:10:05.480Z,1.40
2017-10-24T04:12:36.233Z,1.30
2017-10-24T04:15:07.000Z,1.20
2017-10-24T04:17:37.752Z,1.30
2017-10-24T04:20:08.529Z,1.40
2017-10-24T04:22:39.269Z,1.57
2017-10-24T04:25:10.069Z,1.57
2017-10-24T04:27:40.801Z,1.50
2017-10-24T04:30:11.576Z,1.43
2017-10-24T04:32:42.345Z,1.60
2017-10-24T04:35:13.092Z,1.27
2017-10-24T04:37:43.870Z,1.40
2017-10-24T04:40:14.642Z,1.37
2017-10-24T04:42:45.381Z,1.37
2017-10-24T04:45:16.177Z,1.20
2017-10-24T04:47:46.942Z,1.00
2017-10-24T04:50:17.699Z,1.30
2017-10-24T04:52:48.456Z,1.40
2017-10-24T04:55:19.552Z,1.53
2017-10-24T04:57:50.316Z,1.60
2017-10-24T05:00:21.117Z,1.23
2017-10-24T05:02:51.861Z,1.30
2017-10-24T05:05:22.641Z,1.13
2017-10-24T05:07:53.625Z,1.50
2017-10-24T05:10:24.390Z,1.30
2017-10-24T05:12:55.201Z,1.20
2017-10-24T05:15:25.945Z,1.30
2017-10-24T05:17:56.706Z,1.30
2017-10-24T05:20:27.477Z,1.33
2017-10-24T05:22:58.332Z,1.37
2017-10-24T05:25:29.081Z,1.50
2017-10-24T05:27:59.857Z,1.33
2017-10-24T05:30:30.621Z,1.30
2017-10-24T05:33:01.424Z,1.60
2017-10-24T05:35:32.181Z,1.40
2017-10-24T05:38:02.960Z,1.50
2017-10-24T05:40:33.724Z,1.23
2017-10-24T05:43:04.503Z,1.47
2017-10-24T05:45:35.264Z,1.43
2017-10-24T05:48:06.069Z,1.30
2017-10-24T05:50:36.833Z,1.20
2017-10-24T05:53:07.603Z,1.50
2017-10-24T05:55:38.374Z,1.40
2017-10-24T05:58:09.140Z,1.50
2017-10-24T06:00:39.896Z,1.60
2017-10-24T06:03:10.684Z,1.33
2017-10-24T06:05:41.456Z,1.53
2017-10-24T06:08:12.227Z,1.40
2017-10-24T06:10:43.020Z,1.33
2017-10-24T06:13:13.777Z,1.30
2017-10-24T06:15:44.560Z,1.40
2017-10-24T06:18:15.316Z,1.40
2017-10-24T06:20:46.103Z,1.60
2017-10-24T06:23:16.853Z,1.60
2017-10-24T06:25:47.624Z,1.33
2017-10-24T06:28:18.401Z,1.60
2017-10-24T06:30:49.153Z,1.53
2017-10-24T06:33:19.912Z,1.40
2017-10-24T06:35:50.672Z,1.70
2017-10-24T06:38:21.461Z,1.50
2017-10-24T06:40:52.241Z,1.60
2017-10-24T06:43:23.025Z,1.40
2017-10-24T06:45:53.789Z,1.60
2017-10-24T06:48:24.540Z,1.37
2017-10-24T06:50:55.309Z,1.30
2017-10-24T06:53:26.082Z,1.60
2017-10-24T06:55:56.829Z,1.60
2017-10-24T06:58:27.604Z,1.60
2017-10-24T07:00:58.364Z,1.63
2017-10-24T07:03:29.161Z,1.30
2017-10-24T07:05:59.932Z,1.50
2017-10-24T07:08:30.692Z,1.60
2017-10-24T07:11:01.460Z,1.47
2017-10-24T07:13:32.213Z,1.40
2017-10-24T07:16:02.982Z,1.40
2017-10-24T07:18:33.749Z,1.50
2017-10-24T07:21:04.516Z,1.50
2017-10-24T07:23:36.180Z,1.40
2017-10-24T07:26:06.942Z,1.30
2017-10-24T07:28:37.720Z,1.50
2017-10-24T07:31:08.501Z,1.33
2017-10-24T07:33:39.252Z,1.17
2017-10-24T07:36:10.051Z,1.33
2017-10-24T07:38:40.837Z,1.20
2017-10-24T07:41:11.604Z,1.47
2017-10-24T07:43:42.362Z,1.23
2017-10-24T07:46:13.121Z,1.57
2017-10-24T07:48:43.873Z,1.30
2017-10-24T07:51:14.652Z,1.30
2017-10-24T07:53:45.438Z,1.30
2017-10-24T07:56:16.213Z,1.40
2017-10-24T07:58:46.981Z,1.37
2017-10-24T08:01:17.729Z,1.50
2017-10-24T08:03:48.501Z,1.40
2017-10-24T08:06:19.273Z,1.50
2017-10-24T08:08:50.036Z,1.43
2017-10-24T08:11:20.798Z,1.40
2017-10-24T08:13:51.555Z,1.40
2017-10-24T08:16:22.320Z,1.30
2017-10-24T08:18:53.068Z,1.50
2017-10-24T08:21:23.861Z,1.17
2017-10-24T08:23:54.625Z,1.30
2017-10-24T08:26:25.393Z,1.10
2017-10-24T08:28:56.138Z,1.63
2017-10-24T08:31:26.918Z,1.50
2017-10-24T08:33:57.664Z,1.40
2017-10-24T08:36:28.431Z,1.30
2017-10-24T08:38:59.190Z,1.30
2017-10-24T08:41:29.945Z,1.30
2017-10-24T08:44:00.727Z,1.40
2017-10-24T08:46:31.474Z,1.30
2017-10-24T08:49:02.253Z,1.30
2017-10-24T08:51:33.000Z,1.17
2017-10-24T08:54:03.823Z,1.20
2017-10-24T08:56:34.561Z,1.33
2017-10-24T08:59:05.328Z,1.20
2017-10-24T09:01:36.101Z,1.17
2017-10-24T09:04:06.845Z,1.03
2017-10-24T09:06:37.610Z,1.20
2017-10-24T09:09:08.388Z,1.23
2017-10-24T09:11:39.151Z,1.20
2017-10-24T09:14:09.920Z,1.23
2017-10-24T09:16:40.709Z,1.30
2017-10-24T09:19:11.480Z,1.30
2017-10-24T09:21:42.227Z,1.20
2017-10-24T09:24:13.012Z,1.00
2017-10-24T09:26:43.748Z,1.27
2017-10-24T09:29:14.529Z,1.20
2017-10-24T09:31:45.301Z,1.00
2017-10-24T09:34:16.084Z,1.10
2017-10-24T09:36:46.840Z,1.20
2017-10-24T09:39:17.593Z,1.20
2017-10-24T09:41:48.377Z,1.23
2017-10-24T09:44:19.120Z,1.20
2017-10-24T09:46:49.901Z,1.20
2017-10-24T09:49:20.676Z,1.10
2017-10-24T09:51:51.437Z,1.17
2017-10-24T09:54:22.185Z,1.20
2017-10-24T09:56:52.990Z,1.07
2017-10-24T09:59:23.752Z,1.23
2017-10-24T10:01:54.536Z,1.20
2017-10-24T10:04:25.287Z,1.40
2017-10-24T10:06:56.078Z,1.20
2017-10-24T10:09:26.847Z,1.30
2017-10-24T10:11:57.611Z,1.27
2017-10-24T10:14:28.395Z,0.80
2017-10-24T10:16:59.160Z,0.93
2017-10-24T10:19:29.909Z,1.20
2017-10-24T10:22:00.677Z,1.10
2017-10-24T10:24:31.476Z,1.10
2017-10-24T10:27:02.232Z,1.10
2017-10-24T10:29:32.988Z,1.20
2017-10-24T10:32:03.745Z,1.00
2017-10-24T10:34:34.549Z,0.80
2017-10-24T10:37:05.331Z,1.10
2017-10-24T10:39:36.080Z,1.03
2017-10-24T10:42:06.856Z,1.20
2017-10-24T10:44:37.596Z,1.20
2017-10-24T10:47:08.384Z,1.17
2017-10-24T10:49:39.164Z,1.20
2017-10-24T10:52:09.925Z,1.07
2017-10-24T10:54:40.709Z,1.17
2017-10-24T10:57:11.498Z,1.23
2017-10-24T10:59:42.236Z,0.93
2017-10-24T11:02:13.048Z,1.30
2017-10-24T11:04:43.800Z,1.23
2017-10-24T11:07:14.569Z,1.20
2017-10-24T11:09:45.360Z,1.10
2017-10-24T11:12:16.130Z,1.00
2017-10-24T11:14:46.886Z,1.00
2017-10-24T11:17:17.662Z,1.00
2017-10-24T11:19:48.446Z,1.20
2017-10-24T11:22:19.241Z,1.20
2017-10-24T11:24:50.009Z,1.00
2017-10-24T11:27:20.762Z,1.03
2017-10-24T11:29:51.524Z,1.10
2017-10-24T11:32:22.311Z,1.00
2017-10-24T11:34:53.057Z,1.10
2017-10-24T11:37:23.845Z,1.33
2017-10-24T11:39:54.588Z,1.00
2017-10-24T11:42:25.360Z,1.00
2017-10-24T11:44:56.134Z,1.17
2017-10-24T11:47:26.878Z,1.10
2017-10-24T11:49:57.660Z,1.20
2017-10-24T11:52:28.431Z,1.20
2017-10-24T11:54:59.179Z,0.93
2017-10-24T11:57:29.950Z,1.30
2017-10-24T12:00:00.729Z,1.20
2017-10-24T12:02:31.468Z,1.03
2017-10-24T12:05:02.232Z,0.90
2017-10-24T12:07:33.003Z,0.97
2017-10-24T12:10:03.768Z,0.83
2017-10-24T12:12:34.552Z,1.00
2017-10-24T12:15:05.297Z,1.10
2017-10-24T12:17:36.076Z,1.00
2017-10-24T12:20:06.829Z,1.03
2017-10-24T12:22:37.610Z,1.10
2017-10-24T12:25:08.376Z,0.97
2017-10-24T12:27:39.233Z,1.13
2017-10-24T12:30:09.969Z,1.10
2017-10-24T12:32:40.737Z,0.87
2017-10-24T12:35:11.484Z,1.10
2017-10-24T12:37:42.321Z,1.00
2017-10-24T12:40:13.068Z,0.90
2017-10-24T12:42:43.849Z,1.10
2017-10-24T12:45:14.612Z,1.13
2017-10-24T12:47:45.399Z,1.00
2017-10-24T12:50:16.150Z,0.97
2017-10-24T12:52:46.913Z,1.00
2017-10-24T12:55:17.708Z,1.20
2017-10-24T12:57:48.472Z,1.10
2017-10-24T13:00:19.244Z,1.00
2017-10-24T13:02:50.016Z,1.17
2017-10-24T13:05:20.804Z,0.93
2017-10-24T13:07:51.548Z,0.90
2017-10-24T13:10:22.316Z,1.40
2017-10-24T13:12:53.085Z,1.20
2017-10-24T13:15:23.856Z,0.93
2017-10-24T13:17:54.656Z,1.33
2017-10-24T13:20:25.423Z,1.00
2017-10-24T13:22:56.192Z,1.03
2017-10-24T13:25:26.981Z,1.07
2017-10-24T13:27:57.748Z,1.30
2017-10-24T13:30:28.513Z,1.00
2017-10-24T13:32:59.268Z,0.90
2017-10-24T13:35:30.023Z,1.17
2017-10-24T13:38:00.788Z,1.03
2017-10-24T13:40:31.544Z,0.97
2017-10-24T13:43:02.313Z,1.00
2017-10-24T13:45:33.068Z,1.00
2017-10-24T13:48:03.854Z,1.00
2017-10-24T13:50:34.609Z,0.87
2017-10-24T13:53:05.360Z,1.10
2017-10-24T13:55:36.125Z,1.07
2017-10-24T13:58:06.893Z,0.80
2017-10-24T14:00:37.648Z,1.10
2017-10-24T14:03:08.429Z,0.97
2017-10-24T14:05:39.184Z,1.00
2017-10-24T14:08:09.956Z,1.17
2017-10-24T14:10:40.749Z,1.00
2017-10-24T14:13:11.500Z,1.07
2017-10-24T14:15:42.282Z,0.80
2017-10-24T14:18:13.070Z,1.10
2017-10-24T14:20:43.836Z,1.10
2017-10-24T14:23:14.605Z,1.13
2017-10-24T14:25:45.370Z,1.07
2017-10-24T14:28:16.124Z,0.90
2017-10-24T14:30:46.908Z,1.03
2017-10-24T14:33:17.656Z,0.80
2017-10-24T14:35:48.457Z,1.00
2017-10-24T14:38:19.224Z,1.10
2017-10-24T14:40:50.001Z,0.93
2017-10-24T14:43:20.773Z,1.07
2017-10-24T14:45:51.529Z,0.87
2017-10-24T14:48:22.288Z,1.10
2017-10-24T14:50:53.040Z,1.10
2017-10-24T14:53:23.811Z,1.03
2017-10-24T14:55:54.616Z,0.80
2017-10-24T14:58:25.377Z,1.00
2017-10-24T15:00:56.159Z,0.80
2017-10-24T15:03:26.973Z,1.07
2017-10-24T15:05:57.771Z,0.90
2017-10-24T15:08:28.537Z,0.90
2017-10-24T15:10:59.281Z,0.80
2017-10-24T15:13:30.060Z,1.17
2017-10-24T15:16:00.838Z,0.83
2017-10-24T15:18:31.602Z,1.10
2017-10-24T15:21:02.383Z,0.90
2017-10-24T15:23:33.129Z,0.83
2017-10-24T15:26:03.902Z,1.00
2017-10-24T15:28:34.647Z,1.17
2017-10-24T15:31:05.428Z,1.00
2017-10-24T15:33:36.177Z,1.20
2017-10-24T15:36:06.948Z,0.97
2017-10-24T15:38:37.725Z,1.20
2017-10-24T15:41:08.481Z,1.00
2017-10-24T15:43:39.257Z,1.10
2017-10-24T15:46:10.022Z,1.00
2017-10-24T15:48:40.817Z,1.17
2017-10-24T15:51:11.578Z,1.10
2017-10-24T15:53:42.348Z,1.23
2017-10-24T15:56:13.129Z,1.10
2017-10-24T15:58:43.909Z,1.03
2017-10-24T16:01:14.685Z,1.10
2017-10-24T16:03:45.465Z,1.10
2017-10-24T16:06:16.253Z,1.17
2017-10-24T16:08:46.998Z,1.20
2017-10-24T16:11:17.801Z,1.20
2017-10-24T16:13:48.578Z,1.10
2017-10-24T16:16:19.355Z,1.10
2017-10-24T16:18:50.118Z,1.13
2017-10-24T16:21:20.888Z,1.00
2017-10-24T16:23:51.651Z,0.93
2017-10-24T16:26:22.427Z,1.13
2017-10-24T16:28:53.228Z,1.20
2017-10-24T16:31:23.983Z,1.17
2017-10-24T16:33:54.826Z,1.30
2017-10-24T16:36:25.602Z,1.40
2017-10-24T16:38:56.368Z,1.33
2017-10-24T16:41:27.152Z,1.83
2017-10-24T16:43:57.919Z,1.70
2017-10-24T16:46:28.697Z,1.70
2017-10-24T16:48:59.547Z,1.50
2017-10-24T16:51:30.288Z,1.67
2017-10-24T16:54:01.057Z,1.70
2017-10-24T16:56:31.873Z,1.60
2017-10-24T16:59:02.609Z,1.40
2017-10-24T17:01:33.396Z,1.70
2017-10-24T17:04:04.198Z,1.70
2017-10-24T17:06:35.010Z,1.80
2017-10-24T17:09:05.784Z,1.90
2017-10-24T17:11:36.539Z,1.70
2017-10-24T17:14:07.316Z,1.70
2017-10-24T17:16:38.127Z,1.90
2017-10-24T17:19:08.884Z,1.83
2017-10-24T17:21:39.649Z,2.30
2017-10-24T17:24:10.404Z,2.33
2017-10-24T17:26:41.157Z,2.30
2017-10-24T17:29:12.046Z,1.97
2017-10-24T17:31:42.782Z,2.27
2017-10-24T17:34:13.571Z,1.93
2017-10-24T17:36:44.339Z,2.30
2017-10-24T17:39:15.086Z,2.37
2017-10-24T17:41:45.870Z,2.40
2017-10-24T17:44:16.633Z,2.30
2017-10-24T17:46:47.397Z,2.20
2017-10-24T17:49:18.152Z,2.17
2017-10-24T17:51:48.917Z,2.47
2017-10-24T17:54:19.686Z,2.40
2017-10-24T17:56:50.464Z,2.20
2017-10-24T17:59:21.228Z,2.30
2017-10-24T18:01:52.029Z,2.20
2017-10-24T18:04:22.789Z,2.20
2017-10-24T18:06:53.586Z,2.20
2017-10-24T18:09:24.341Z,2.60
2017-10-24T18:11:55.105Z,2.40
2017-10-24T18:14:25.917Z,2.60
2017-10-24T18:16:56.678Z,2.73
2017-10-24T18:19:27.461Z,2.40
2017-10-24T18:21:58.259Z,2.40
2017-10-24T18:24:29.081Z,2.20
2017-10-24T18:26:59.839Z,2.40
2017-10-24T18:29:30.621Z,2.70
2017-10-24T18:32:01.374Z,2.47
2017-10-24T18:34:32.152Z,2.10
2017-10-24T18:37:02.913Z,2.20
2017-10-24T18:39:33.699Z,2.40
2017-10-24T18:42:04.458Z,2.37
2017-10-24T18:44:35.325Z,2.43
2017-10-24T18:47:06.130Z,2.40
2017-10-24T18:49:36.901Z,2.73
2017-10-24T18:52:07.655Z,2.63
2017-10-24T18:54:38.438Z,2.60
2017-10-24T18:57:09.201Z,2.30
2017-10-24T18:59:39.960Z,2.73
2017-10-24T19:02:10.743Z,2.30
2017-10-24T19:04:41.491Z,2.67
2017-10-24T19:07:12.261Z,2.70
2017-10-24T19:09:43.119Z,2.87
2017-10-24T19:12:13.904Z,2.70
2017-10-24T19:14:44.645Z,2.90
2017-10-24T19:17:15.425Z,2.80
2017-10-24T19:19:46.213Z,3.10
2017-10-24T19:22:16.976Z,2.90
2017-10-24T19:24:47.744Z,3.03
2017-10-24T19:27:18.542Z,2.70
2017-10-24T19:29:49.309Z,2.80
2017-10-24T19:32:20.090Z,2.73
2017-10-24T19:34:50.921Z,2.80
2017-10-24T19:37:21.732Z,2.80
2017-10-24T19:39:52.500Z,3.10
2017-10-24T19:42:23.289Z,2.67
2017-10-24T19:44:54.051Z,3.00
2017-10-24T19:47:24.829Z,2.90
2017-10-24T19:49:55.596Z,2.90
2017-10-24T19:52:26.420Z,2.80
2017-10-24T19:54:58.193Z,2.80
2017-10-24T19:57:28.961Z,2.67
2017-10-24T19:59:59.712Z,2.93
2017-10-24T20:02:30.665Z,2.90
2017-10-24T20:05:01.407Z,2.90
2017-10-24T20:07:32.181Z,2.80
2017-10-24T20:10:02.992Z,3.03
2017-10-24T20:12:33.751Z,2.97
2017-10-24T20:15:04.590Z,2.80
2017-10-24T20:17:35.360Z,3.03
2017-10-24T20:20:06.132Z,3.07
2017-10-24T20:22:36.892Z,2.90
2017-10-24T20:25:07.671Z,2.87
2017-10-24T20:27:38.441Z,2.87
2017-10-24T20:30:09.209Z,2.80
2017-10-24T20:32:39.960Z,2.70
2017-10-24T20:35:10.729Z,2.83
2017-10-24T20:37:41.510Z,2.83
2017-10-24T20:40:12.319Z,2.80
2017-10-24T20:42:43.083Z,2.83
2017-10-24T20:45:13.875Z,3.10
2017-10-24T20:47:44.668Z,3.13
2017-10-24T20:50:15.460Z,2.80
2017-10-24T20:52:46.251Z,2.80
2017-10-24T20:55:17.044Z,2.90
2017-10-24T20:57:47.825Z,3.10
2017-10-24T21:00:18.581Z,2.63
2017-10-24T21:02:49.380Z,2.90
2017-10-24T21:05:20.122Z,2.93
2017-10-24T21:07:50.909Z,3.00
2017-10-24T21:10:21.696Z,2.80
2017-10-24T21:12:52.451Z,2.80
2017-10-24T21:15:23.212Z,3.00
2017-10-24T21:17:53.991Z,2.87
2017-10-24T21:20:24.759Z,2.80
2017-10-24T21:22:55.528Z,2.83
2017-10-24T21:25:26.288Z,2.90
2017-10-24T21:27:57.029Z,2.70
2017-10-24T21:30:27.805Z,2.67
2017-10-24T21:32:58.557Z,2.77
2017-10-24T21:35:29.328Z,2.87
2017-10-24T21:38:00.093Z,2.80
2017-10-24T21:40:30.856Z,2.43
2017-10-24T21:43:01.620Z,2.43
2017-10-24T21:45:32.397Z,2.70
2017-10-24T21:48:03.143Z,2.70
2017-10-24T21:50:33.913Z,2.40
2017-10-24T21:53:04.680Z,2.50
2017-10-24T21:55:35.445Z,2.70
2017-10-24T21:58:06.201Z,2.63
2017-10-24T22:00:36.962Z,2.73
2017-10-24T22:03:07.725Z,2.70
2017-10-24T22:05:38.496Z,2.50
2017-10-24T22:08:09.249Z,2.43
2017-10-24T22:10:40.024Z,2.40
2017-10-24T22:13:10.792Z,2.50
2017-10-24T22:15:41.581Z,2.63
2017-10-24T22:18:12.414Z,2.43
2017-10-24T22:20:43.160Z,2.50
2017-10-24T22:23:13.958Z,2.60
2017-10-24T22:25:44.724Z,2.20
2017-10-24T22:28:15.490Z,2.20
2017-10-24T22:30:46.607Z,2.40
2017-10-24T22:33:17.350Z,2.30
2017-10-24T22:35:48.113Z,2.67
2017-10-24T22:38:18.864Z,2.53
2017-10-24T22:40:49.657Z,2.50
2017-10-24T22:43:20.409Z,2.53
2017-10-24T22:45:51.176Z,2.90
2017-10-24T22:48:21.972Z,2.50
2017-10-24T22:50:52.749Z,2.53
2017-10-24T22:53:23.548Z,2.50
2017-10-24T22:55:54.333Z,2.70
2017-10-24T22:58:25.078Z,2.50
2017-10-24T23:00:55.843Z,2.40
2017-10-24T23:03:26.592Z,2.50
2017-10-24T23:05:57.401Z,2.50
2017-10-24T23:08:28.148Z,2.40
2017-10-24T23:10:58.949Z,2.63
2017-10-24T23:13:29.713Z,2.40
2017-10-24T23:16:00.465Z,2.70
2017-10-24T23:18:31.243Z,2.80
2017-10-24T23:21:01.992Z,3.00
2017-10-24T23:23:32.776Z,2.63
2017-10-24T23:26:03.542Z,2.73
2017-10-24T23:28:34.332Z,2.60
2017-10-24T23:31:05.064Z,2.50
2017-10-24T23:33:35.836Z,2.50
2017-10-24T23:36:06.604Z,2.60
2017-10-24T23:38:37.362Z,2.53
2017-10-24T23:41:08.134Z,2.60
2017-10-24T23:43:38.910Z,2.63
2017-10-24T23:46:09.673Z,2.70
2017-10-24T23:48:40.446Z,2.67
2017-10-24T23:51:11.205Z,2.80
2017-10-24T23:53:41.972Z,2.67
2017-10-24T23:56:12.753Z,2.63
2017-10-24T23:58:43.509Z,2.77
